Seattle, Washington
Traffic Map
Current Weather Conditions
Seattle, Washington
Clear
Clear
18°
Feels Like: 18°
Wind Chill: 18° Ceiling: Unl
Heat Index: 18° Visibility: 10mi
Dew Point: 12° Wind: 3mph
Humidity: 68% Direction: 320° (NW)
Pressure: 30.05in Gusts: 0mph
Raw Report DataKBFI 011253Z 32003KT 10SM CLR 18/12 A3005 RMK AO2 SLP176 T01830122
Traffic Incident Summary
Active as of:
Severity:
Category:
InformationThere was an issue retrieving the traffic information for this location. Please try a different location or try again shortly.
Advertisements
Track Severe Weather on mobile